Delta Pride — DSNG6 — position and weather

sailwx.info

Track history (hours):
 
Tides and Currents Weather Stations Pressure Air Temp Water Temp Dewpoint Dewpoint Depression Visibility Wind Speed Wind Dir Waves Ship Positions

Delta Pride

Last reported at 2015-Apr-18 17:17 UTC. Time now 2015-Apr-18 19:14 UTC.
Position N 46°20' W 126°05'.

Length 186 m; draft 7 m.

Type: Cargo ship. MMSI: 441339000.

Date/timePositionNaut miles runAvg speedWind from/ knotsBaromVisibWave heightAir tempDewpointWater temp
2015-Apr-18 17:17N 46°20' W 126°05'1710.0
2015-Apr-18 15:33N 46°03' W 126°05'11 9.9
2015-Apr-18 14:25N 45°52' W 126°05'9 9.9
2015-Apr-18 13:33N 45°43' W 126°05'1010.0
2015-Apr-18 12:34N 45°33' W 126°05'10 9.9
2015-Apr-18 11:34N 45°23' W 126°05'10 9.4
2015-Apr-18 10:31N 45°13' W 126°05'10 9.9
2015-Apr-18 09:33N 45°04' W 126°05'1010.1
2015-Apr-18 08:32N 44°53' W 126°05'1010.2
2015-Apr-18 07:33N 44°43' W 126°05'1010.1
2015-Apr-18 06:33N 44°33' W 126°05'1010.5
2015-Apr-18 05:33N 44°23' W 126°05'358 8.7
2015-Apr-16 12:16N 38°33' W 124°24'6 7.7
2015-Apr-16 11:32N 38°30' W 124°17'8 8.2
2015-Apr-16 10:32N 38°27' W 124°08'7 7.1
2015-Apr-16 09:33N 38°24' W 123°60'7 6.6
2015-Apr-16 08:33N 38°21' W 123°52'8 8.2
2015-Apr-16 07:31N 38°18' W 123°42'8 8.1
2015-Apr-16 06:33N 38°14' W 123°33'10 9.5
2015-Apr-16 05:33N 38°11' W 123°22'9 9.2
2015-Apr-16 04:33N 38°04' W 123°14'9 9.0
2015-Apr-16 03:33N 37°58' W 123°06'1010.1
2015-Apr-16 02:33N 37°53' W 122°55'1010.2
2015-Apr-16 01:33N 37°47' W 122°44'9 9.2
2015-Apr-16 00:33N 37°48' W 122°32'9 9.5
2015-Apr-15 23:33N 37°56' W 122°27'1412.2
2015-Apr-15 22:24N 38°03' W 122°11'17 9.0
2015-Apr-15 20:32N 38°02' W 121°50'2 0.0
2015-Apr-13 23:33N 38°02' W 121°52'0 0.0
2015-Apr-13 19:27N 38°02' W 121°52'0 0.0
2015-Apr-13 18:33N 38°02' W 121°52'0 0.0
2015-Apr-13 17:33N 38°02' W 121°52'0 0.0
2015-Apr-13 16:30N 38°02' W 121°52'0 0.0
2015-Apr-13 15:18N 38°02' W 121°52'3 4.1
2015-Apr-13 14:33N 38°03' W 121°55'9 8.7
2015-Apr-13 13:29N 38°02' W 122°07'9 9.2
2015-Apr-13 12:34N 38°03' W 122°18'1010.5
2015-Apr-13 11:34N 37°56' W 122°27'7 6.7
2015-Apr-13 10:33N 37°49' W 122°29'1010.4
2015-Apr-13 09:33N 37°44' W 122°40'7 6.8
2015-Apr-13 08:34N 37°40' W 122°47'9 9.4
2015-Apr-13 07:33N 37°35' W 122°57'9 8.9
2015-Apr-13 06:33N 37°32' W 123°08'9 9.3
2015-Apr-13 05:33N 37°32' W 123°20'10 9.8
2015-Apr-13 04:33N 37°33' W 123°32'1010.2
2015-Apr-13 03:33N 37°37' W 123°44'1111.1
2015-Apr-13 02:33N 37°42' W 123°56'1111.1
2015-Apr-13 01:33N 37°48' W 124°08'1110.6
2015-Apr-13 00:32N 37°53' W 124°20'1110.5
2015-Apr-12 23:26N 37°59' W 124°33'1210.8
2015-Apr-12 22:22N 38°04' W 124°46'910.6
2015-Apr-12 21:33N 38°09' W 124°55'10 9.8
2015-Apr-12 20:32N 38°13' W 125°07'  
Track history (hours):
 
Tides and Currents Weather Stations Pressure Air Temp Water Temp Dewpoint Dewpoint Depression Visibility Wind Speed Wind Dir Waves Ship Positions

Delta Pride

Last reported at 2015-Apr-18 17:17 UTC. Time now 2015-Apr-18 19:14 UTC.
Position N 46°20' W 126°05'.

Length 186 m; draft 7 m.

Type: Cargo ship. MMSI: 441339000.

Date/timePositionNaut miles runAvg speedWind from/ knotsBaromVisibWave heightAir tempDewpointWater temp
2015-Apr-18 17:17N 46°20' W 126°05'1710.0
2015-Apr-18 15:33N 46°03' W 126°05'11 9.9
2015-Apr-18 14:25N 45°52' W 126°05'9 9.9
2015-Apr-18 13:33N 45°43' W 126°05'1010.0
2015-Apr-18 12:34N 45°33' W 126°05'10 9.9
2015-Apr-18 11:34N 45°23' W 126°05'10 9.4
2015-Apr-18 10:31N 45°13' W 126°05'10 9.9
2015-Apr-18 09:33N 45°04' W 126°05'1010.1
2015-Apr-18 08:32N 44°53' W 126°05'1010.2
2015-Apr-18 07:33N 44°43' W 126°05'1010.1
2015-Apr-18 06:33N 44°33' W 126°05'1010.5
2015-Apr-18 05:33N 44°23' W 126°05'358 8.7
2015-Apr-16 12:16N 38°33' W 124°24'6 7.7
2015-Apr-16 11:32N 38°30' W 124°17'8 8.2
2015-Apr-16 10:32N 38°27' W 124°08'7 7.1
2015-Apr-16 09:33N 38°24' W 123°60'7 6.6
2015-Apr-16 08:33N 38°21' W 123°52'8 8.2
2015-Apr-16 07:31N 38°18' W 123°42'8 8.1
2015-Apr-16 06:33N 38°14' W 123°33'10 9.5
2015-Apr-16 05:33N 38°11' W 123°22'9 9.2
2015-Apr-16 04:33N 38°04' W 123°14'9 9.0
2015-Apr-16 03:33N 37°58' W 123°06'1010.1
2015-Apr-16 02:33N 37°53' W 122°55'1010.2
2015-Apr-16 01:33N 37°47' W 122°44'9 9.2
2015-Apr-16 00:33N 37°48' W 122°32'9 9.5
2015-Apr-15 23:33N 37°56' W 122°27'1412.2
2015-Apr-15 22:24N 38°03' W 122°11'17 9.0
2015-Apr-15 20:32N 38°02' W 121°50'2 0.0
2015-Apr-13 23:33N 38°02' W 121°52'0 0.0
2015-Apr-13 19:27N 38°02' W 121°52'0 0.0
2015-Apr-13 18:33N 38°02' W 121°52'0 0.0
2015-Apr-13 17:33N 38°02' W 121°52'0 0.0
2015-Apr-13 16:30N 38°02' W 121°52'0 0.0
2015-Apr-13 15:18N 38°02' W 121°52'3 4.1
2015-Apr-13 14:33N 38°03' W 121°55'9 8.7
2015-Apr-13 13:29N 38°02' W 122°07'9 9.2
2015-Apr-13 12:34N 38°03' W 122°18'1010.5
2015-Apr-13 11:34N 37°56' W 122°27'7 6.7
2015-Apr-13 10:33N 37°49' W 122°29'1010.4
2015-Apr-13 09:33N 37°44' W 122°40'7 6.8
2015-Apr-13 08:34N 37°40' W 122°47'9 9.4
2015-Apr-13 07:33N 37°35' W 122°57'9 8.9
2015-Apr-13 06:33N 37°32' W 123°08'9 9.3
2015-Apr-13 05:33N 37°32' W 123°20'10 9.8
2015-Apr-13 04:33N 37°33' W 123°32'1010.2
2015-Apr-13 03:33N 37°37' W 123°44'1111.1
2015-Apr-13 02:33N 37°42' W 123°56'1111.1
2015-Apr-13 01:33N 37°48' W 124°08'1110.6
2015-Apr-13 00:32N 37°53' W 124°20'1110.5
2015-Apr-12 23:26N 37°59' W 124°33'1210.8
2015-Apr-12 22:22N 38°04' W 124°46'910.6
2015-Apr-12 21:33N 38°09' W 124°55'10 9.8
2015-Apr-12 20:32N 38°13' W 125°07'  

Dump ship's entire track history